Time;durP1;ratioP1;P1;durP2;ratioP2;P2;SDS_P1;SDS_P2;PMS_P1;PMS_P2;Temp;Humidity;BMP_temperature;BMP_pressure;BME280_temperature;BME280_humidity;BME280_pressure;Samples;Min_cycle;Max_cycle;Signal;HPM_P1;HPM_P2
2021/06/06 00:00:30;;;;;;;22.52;17.20;;;15.60;99.90;;;;;;5109244;28;20073;-40
2021/06/06 00:02:56;;;;;;;29.67;19.63;;;15.70;99.90;;;;;;5108067;28;20359;-40
2021/06/06 00:05:27;;;;;;;23.02;16.33;;;15.60;99.90;;;;;;5109055;28;20012;-39
2021/06/06 00:07:55;;;;;;;23.15;16.70;;;15.70;99.90;;;;;;5108674;28;20031;-42
2021/06/06 00:10:21;;;;;;;25.17;17.80;;;15.70;99.90;;;;;;5108010;28;20020;-46
2021/06/06 00:12:47;;;;;;;21.60;16.50;;;15.60;99.90;;;;;;5108225;28;20386;-40
2021/06/06 00:15:16;;;;;;;23.75;16.88;;;15.70;99.90;;;;;;5108194;28;20116;-41
2021/06/06 00:17:41;;;;;;;24.95;17.92;;;15.70;99.90;;;;;;5104865;28;20177;-42
2021/06/06 00:20:12;;;;;;;23.35;16.75;;;15.60;99.90;;;;;;5108485;28;20099;-43
2021/06/06 00:22:38;;;;;;;23.77;17.83;;;15.60;99.90;;;;;;5107920;28;20028;-40
2021/06/06 00:25:07;;;;;;;26.23;19.25;;;15.60;99.90;;;;;;5107867;28;20047;-38
2021/06/06 00:27:33;;;;;;;33.38;21.42;;;15.60;99.90;;;;;;5108131;28;20023;-40
2021/06/06 00:30:00;;;;;;;30.33;20.23;;;15.60;99.90;;;;;;5108095;28;20020;-39
2021/06/06 00:32:25;;;;;;;25.48;18.17;;;15.50;99.90;;;;;;5107853;28;20020;-43
2021/06/06 00:34:51;;;;;;;39.25;24.35;;;15.50;99.90;;;;;;5108095;28;20092;-41
2021/06/06 00:37:16;;;;;;;36.83;22.45;;;15.50;99.90;;;;;;5107975;28;20016;-40
2021/06/06 00:39:42;;;;;;;31.58;22.25;;;15.40;99.90;;;;;;5107920;28;20134;-35
2021/06/06 00:42:12;;;;;;;27.13;18.90;;;15.40;99.90;;;;;;5107431;28;20023;-40
2021/06/06 00:44:38;;;;;;;37.08;23.13;;;15.40;99.90;;;;;;5107722;28;20036;-40
2021/06/06 00:47:04;;;;;;;32.97;21.05;;;15.40;99.90;;;;;;5107140;28;20069;-40
2021/06/06 00:49:29;;;;;;;29.80;17.05;;;15.40;99.90;;;;;;5108682;28;20053;-39
2021/06/06 00:51:59;;;;;;;27.63;16.33;;;15.40;99.90;;;;;;5107343;28;20034;-40
2021/06/06 00:54:29;;;;;;;32.15;19.52;;;15.50;99.90;;;;;;5107642;28;20081;-41
2021/06/06 00:57:04;;;;;;;33.72;20.10;;;15.50;99.90;;;;;;5106891;28;20431;-40
2021/06/06 00:59:33;;;;;;;31.50;19.13;;;15.40;99.90;;;;;;5095864;28;20206;-40
2021/06/06 01:01:58;;;;;;;28.88;15.90;;;15.40;99.90;;;;;;5107031;28;20035;-42
2021/06/06 01:04:24;;;;;;;31.77;18.40;;;15.40;99.90;;;;;;5107621;28;20012;-41
2021/06/06 01:06:53;;;;;;;36.25;20.17;;;15.40;99.90;;;;;;5106910;28;20028;-40
2021/06/06 01:09:23;;;;;;;29.35;17.40;;;15.40;99.90;;;;;;5107333;28;20042;-40
2021/06/06 01:12:09;;;;;;;30.23;18.95;;;15.40;99.90;;;;;;5107292;28;20789;-41
2021/06/06 01:14:42;;;;;;;28.45;17.17;;;15.40;99.90;;;;;;5104007;28;20055;-40
2021/06/06 01:17:13;;;;;;;32.42;17.38;;;15.40;99.90;;;;;;5107351;28;20073;-40
2021/06/06 01:19:50;;;;;;;32.92;18.73;;;15.50;99.90;;;;;;5107144;28;20047;-39
2021/06/06 01:22:24;;;;;;;35.25;20.42;;;15.40;99.90;;;;;;5107009;28;20538;-40
2021/06/06 01:25:24;;;;;;;32.55;18.95;;;15.40;99.90;;;;;;5107162;28;20540;-41
2021/06/06 01:28:06;;;;;;;32.65;17.38;;;15.40;99.90;;;;;;5079629;28;20119;-42
2021/06/06 01:30:43;;;;;;;26.73;16.50;;;15.40;99.90;;;;;;5096556;28;20160;-40
2021/06/06 01:33:17;;;;;;;22.15;13.38;;;15.40;99.90;;;;;;5107134;28;20036;-40
2021/06/06 01:35:48;;;;;;;27.30;16.05;;;15.40;99.90;;;;;;5095673;28;20069;-40
2021/06/06 01:38:22;;;;;;;26.55;16.55;;;15.40;99.90;;;;;;5107145;28;20016;-42
2021/06/06 01:40:53;;;;;;;27.60;16.50;;;15.40;99.90;;;;;;5107411;27;20026;-40
2021/06/06 01:43:23;;;;;;;23.27;13.73;;;15.50;99.90;;;;;;5106725;28;20050;-41
2021/06/06 01:45:54;;;;;;;22.20;13.95;;;15.50;99.90;;;;;;5106751;28;20034;-40
2021/06/06 01:48:19;;;;;;;23.17;12.55;;;15.50;99.90;;;;;;5107855;27;20111;-45
2021/06/06 01:50:58;;;;;;;20.75;14.00;;;15.50;99.90;;;;;;5106561;28;20141;-40
2021/06/06 01:53:28;;;;;;;27.75;16.33;;;15.50;99.90;;;;;;5107568;28;20023;-40
2021/06/06 01:55:57;;;;;;;24.08;15.77;;;15.60;99.90;;;;;;5107269;28;20035;-41
2021/06/06 01:58:23;;;;;;;20.65;13.63;;;15.60;99.90;;;;;;5106950;28;20027;-39
2021/06/06 02:00:58;;;;;;;29.88;15.13;;;15.60;99.90;;;;;;5106613;28;20028;-40
2021/06/06 02:03:23;;;;;;;30.40;17.92;;;15.60;99.90;;;;;;5107252;28;20105;-40
2021/06/06 02:05:50;;;;;;;25.50;15.85;;;15.60;99.90;;;;;;5106912;28;20107;-40
2021/06/06 02:08:21;;;;;;;25.63;16.30;;;15.50;99.90;;;;;;5107098;28;20027;-40
2021/06/06 02:11:06;;;;;;;37.20;21.67;;;15.60;99.90;;;;;;5107509;28;20156;-41
2021/06/06 02:13:43;;;;;;;35.67;20.17;;;15.60;99.90;;;;;;5091171;28;20028;-40
2021/06/06 02:16:09;;;;;;;28.25;17.27;;;15.50;99.90;;;;;;5108416;28;20154;-40
2021/06/06 02:18:35;;;;;;;23.42;15.60;;;15.50;99.90;;;;;;5111238;28;20050;-41
2021/06/06 02:21:00;;;;;;;26.35;15.95;;;15.50;99.90;;;;;;5110724;28;20019;-42
2021/06/06 02:23:29;;;;;;;29.70;16.45;;;15.50;99.90;;;;;;5110650;28;20498;-41
2021/06/06 02:26:08;;;;;;;27.45;16.42;;;15.50;99.90;;;;;;5110000;28;20344;-41
2021/06/06 02:28:52;;;;;;;27.30;16.90;;;15.60;99.90;;;;;;5111169;28;20047;-40
2021/06/06 02:31:29;;;;;;;31.20;18.25;;;15.60;99.90;;;;;;5110134;28;20032;-39
2021/06/06 02:34:33;;;;;;;34.72;21.33;;;15.60;99.90;;;;;;5110267;28;20031;-46
2021/06/06 02:37:15;;;;;;;36.58;22.17;;;15.50;99.90;;;;;;5110483;28;20035;-44
2021/06/06 02:39:45;;;;;;;24.52;16.88;;;15.40;99.90;;;;;;5110101;28;20099;-40
2021/06/06 02:42:15;;;;;;;40.70;24.05;;;15.40;99.90;;;;;;5109870;28;20027;-40
2021/06/06 02:45:00;;;;;;;33.00;19.38;;;15.40;99.90;;;;;;5110400;28;20016;-40
2021/06/06 02:47:35;;;;;;;26.92;16.70;;;15.40;99.90;;;;;;5110862;28;20290;-39
2021/06/06 02:50:31;;;;;;;29.30;18.40;;;15.30;99.90;;;;;;5110450;28;20089;-41
2021/06/06 02:53:23;;;;;;;39.83;22.13;;;15.40;99.90;;;;;;5091600;28;20530;-38
2021/06/06 02:55:56;;;;;;;32.65;19.63;;;15.40;99.90;;;;;;5110668;28;20111;-41
2021/06/06 02:58:33;;;;;;;37.95;20.67;;;15.30;99.90;;;;;;5110520;28;20011;-41
2021/06/06 03:01:03;;;;;;;32.10;20.40;;;15.30;99.90;;;;;;5109265;28;20077;-41
2021/06/06 03:03:34;;;;;;;34.85;22.02;;;15.30;99.90;;;;;;5110421;28;20150;-40
2021/06/06 03:06:04;;;;;;;34.63;20.77;;;15.30;99.90;;;;;;5109886;27;20046;-40
2021/06/06 03:08:30;;;;;;;45.05;24.75;;;15.30;99.90;;;;;;5110205;28;20467;-40
2021/06/06 03:10:59;;;;;;;34.40;22.48;;;15.20;99.90;;;;;;5109445;28;20031;-42
2021/06/06 03:13:31;;;;;;;26.80;19.10;;;15.20;99.90;;;;;;5109195;28;20019;-39
2021/06/06 03:15:59;;;;;;;32.58;18.60;;;15.30;99.90;;;;;;5109590;27;20051;-40
2021/06/06 03:18:32;;;;;;;32.42;20.13;;;15.30;99.90;;;;;;5110089;28;20574;-40
2021/06/06 03:21:09;;;;;;;31.48;20.80;;;15.30;99.90;;;;;;5109552;28;20015;-38
2021/06/06 03:23:36;;;;;;;31.48;20.92;;;15.30;99.90;;;;;;5109025;28;20028;-40
2021/06/06 03:26:11;;;;;;;28.45;19.00;;;15.30;99.90;;;;;;5109349;28;20030;-41
2021/06/06 03:28:39;;;;;;;31.60;20.00;;;15.30;99.90;;;;;;5109442;28;20509;-40
2021/06/06 03:31:33;;;;;;;39.47;22.67;;;15.30;99.90;;;;;;5110334;28;20020;-42
2021/06/06 03:34:02;;;;;;;31.10;20.38;;;15.30;99.90;;;;;;5108995;28;20516;-39
2021/06/06 03:36:31;;;;;;;37.03;23.67;;;15.30;99.90;;;;;;5108977;28;20027;-41
2021/06/06 03:38:58;;;;;;;36.72;23.73;;;15.30;99.90;;;;;;5109174;28;20027;-44
2021/06/06 03:41:28;;;;;;;33.30;21.55;;;15.30;99.90;;;;;;5109583;28;20016;-41
2021/06/06 03:43:54;;;;;;;39.78;25.23;;;15.30;99.90;;;;;;5108763;28;20399;-41
2021/06/06 03:46:22;;;;;;;42.03;27.60;;;15.30;99.90;;;;;;5109669;28;20027;-40
2021/06/06 03:48:51;;;;;;;40.78;25.40;;;15.20;99.90;;;;;;5108509;28;20427;-41
2021/06/06 03:51:17;;;;;;;36.80;23.08;;;15.20;99.90;;;;;;5109069;28;20032;-44
2021/06/06 03:53:44;;;;;;;31.27;20.98;;;15.20;99.90;;;;;;5108963;28;20530;-41
2021/06/06 03:56:11;;;;;;;30.60;19.92;;;15.20;99.90;;;;;;5108777;28;20028;-41
2021/06/06 03:58:37;;;;;;;34.13;23.05;;;15.20;99.90;;;;;;5109042;28;20023;-41
2021/06/06 04:01:03;;;;;;;36.65;23.80;;;15.30;99.90;;;;;;5108519;28;20027;-40
2021/06/06 04:03:29;;;;;;;40.00;25.70;;;15.20;99.90;;;;;;5108572;28;20479;-40
2021/06/06 04:05:58;;;;;;;40.22;26.23;;;15.20;99.90;;;;;;5109004;28;20023;-41
2021/06/06 04:08:26;;;;;;;33.00;21.65;;;15.20;99.90;;;;;;5108776;28;20121;-40
2021/06/06 04:10:52;;;;;;;25.15;17.85;;;15.20;99.90;;;;;;5108502;28;20023;-42
2021/06/06 04:13:20;;;;;;;34.80;22.45;;;15.20;99.90;;;;;;5108690;28;20023;-40
2021/06/06 04:15:49;;;;;;;30.63;21.25;;;15.20;99.90;;;;;;5108710;28;20100;-40
2021/06/06 04:18:27;;;;;;;28.55;20.30;;;15.20;99.90;;;;;;5108423;28;20119;-40
2021/06/06 04:20:54;;;;;;;35.45;23.90;;;15.20;99.90;;;;;;5106023;28;20020;-40
2021/06/06 04:23:21;;;;;;;35.45;23.33;;;15.30;99.90;;;;;;5108655;28;20047;-40
2021/06/06 04:25:48;;;;;;;30.90;19.33;;;15.30;99.90;;;;;;5108029;28;20103;-42
2021/06/06 04:28:13;;;;;;;35.65;23.95;;;15.30;99.90;;;;;;5108960;28;20523;-41
2021/06/06 04:30:39;;;;;;;42.47;27.00;;;15.20;99.90;;;;;;5108132;28;20016;-40
2021/06/06 04:33:08;;;;;;;38.97;25.83;;;15.10;99.90;;;;;;5108149;28;20056;-40
2021/06/06 04:35:36;;;;;;;33.55;21.48;;;15.10;99.90;;;;;;5107636;28;20666;-40
2021/06/06 04:38:02;;;;;;;33.80;20.20;;;15.10;99.90;;;;;;5107501;27;20031;-38
2021/06/06 04:40:29;;;;;;;28.90;19.58;;;15.10;99.90;;;;;;5108373;28;20103;-40
2021/06/06 04:42:55;;;;;;;36.65;22.40;;;15.10;99.90;;;;;;5108479;28;20079;-40
2021/06/06 04:45:21;;;;;;;34.85;22.17;;;15.10;99.90;;;;;;5107753;28;20024;-40
2021/06/06 04:47:46;;;;;;;45.83;24.52;;;15.10;99.90;;;;;;5108048;28;20031;-40
2021/06/06 04:50:14;;;;;;;35.30;22.85;;;15.10;99.90;;;;;;5108148;28;20192;-40
2021/06/06 04:52:39;;;;;;;32.65;21.13;;;15.00;99.90;;;;;;5107442;28;20625;-38
2021/06/06 04:55:09;;;;;;;30.33;19.10;;;15.00;99.90;;;;;;5107994;28;20344;-41
2021/06/06 04:57:35;;;;;;;24.17;16.50;;;15.10;99.90;;;;;;5108919;28;20024;-40
2021/06/06 05:00:03;;;;;;;27.90;18.08;;;15.10;99.90;;;;;;5107395;28;20011;-41
2021/06/06 05:02:28;;;;;;;31.42;20.70;;;15.10;99.90;;;;;;5107450;27;20092;-42
2021/06/06 05:04:54;;;;;;;32.33;21.17;;;15.10;99.90;;;;;;5107284;28;20147;-40
2021/06/06 05:07:20;;;;;;;27.83;20.00;;;15.10;99.90;;;;;;5104178;28;20014;-40
2021/06/06 05:09:47;;;;;;;31.95;20.40;;;15.10;99.90;;;;;;5107891;28;20327;-40
2021/06/06 05:12:12;;;;;;;26.70;17.85;;;15.10;99.90;;;;;;5107686;28;20107;-40
2021/06/06 05:14:38;;;;;;;25.80;18.95;;;15.10;99.90;;;;;;5107472;28;20570;-42
2021/06/06 05:17:03;;;;;;;28.70;18.23;;;15.10;99.90;;;;;;5106978;28;20462;-39
2021/06/06 05:19:29;;;;;;;28.67;18.77;;;15.10;99.90;;;;;;5108098;28;20032;-41
2021/06/06 05:21:58;;;;;;;31.63;20.15;;;15.10;99.90;;;;;;5106778;28;20051;-41
2021/06/06 05:24:23;;;;;;;28.08;18.95;;;15.10;99.90;;;;;;5107540;28;20040;-40
2021/06/06 05:26:58;;;;;;;30.42;19.60;;;15.20;99.90;;;;;;5106408;28;20072;-40
2021/06/06 05:29:24;;;;;;;22.58;16.35;;;15.20;99.90;;;;;;5107618;28;20175;-40
2021/06/06 05:31:50;;;;;;;24.98;16.67;;;15.20;99.90;;;;;;5106847;28;20119;-40
2021/06/06 05:34:16;;;;;;;31.75;20.40;;;15.30;99.90;;;;;;5106907;28;20525;-41
2021/06/06 05:36:42;;;;;;;24.17;16.33;;;15.30;99.90;;;;;;5107500;28;20343;-41
2021/06/06 05:39:08;;;;;;;27.65;18.33;;;15.30;99.90;;;;;;5106805;28;20115;-41
2021/06/06 05:41:38;;;;;;;26.20;17.30;;;15.30;99.90;;;;;;5106646;28;20766;-43
2021/06/06 05:44:05;;;;;;;28.50;19.85;;;15.30;99.90;;;;;;5095903;28;20523;-41
2021/06/06 05:46:31;;;;;;;26.05;17.85;;;15.30;99.90;;;;;;5107263;28;20061;-40
2021/06/06 05:49:00;;;;;;;26.20;18.67;;;15.30;99.90;;;;;;5105132;28;20074;-40
2021/06/06 05:51:25;;;;;;;26.23;17.05;;;15.30;99.90;;;;;;5106938;28;20042;-40
2021/06/06 05:53:51;;;;;;;27.75;18.83;;;15.40;99.90;;;;;;5106899;28;20386;-41
2021/06/06 05:56:17;;;;;;;24.23;16.92;;;15.40;99.90;;;;;;5106008;28;20027;-40
2021/06/06 05:58:47;;;;;;;25.85;16.73;;;15.40;99.90;;;;;;5106558;28;20040;-40
2021/06/06 06:01:12;;;;;;;24.55;17.77;;;15.40;99.90;;;;;;5107115;28;20037;-39
2021/06/06 06:03:38;;;;;;;23.17;16.27;;;15.40;99.90;;;;;;5105988;28;20032;-42
2021/06/06 06:06:05;;;;;;;23.42;15.68;;;15.40;99.90;;;;;;5106713;28;20117;-41
2021/06/06 06:08:37;;;;;;;22.58;15.55;;;15.50;99.90;;;;;;5106913;28;20115;-41
2021/06/06 06:11:07;;;;;;;24.77;16.23;;;15.60;99.90;;;;;;5106384;28;20775;-40
2021/06/06 06:13:34;;;;;;;22.52;15.30;;;15.60;99.90;;;;;;5106749;28;20358;-40
2021/06/06 06:16:03;;;;;;;17.90;13.20;;;15.70;99.90;;;;;;5105510;28;20047;-40
2021/06/06 06:18:29;;;;;;;21.90;16.08;;;15.70;99.90;;;;;;5107222;28;20027;-40
2021/06/06 06:20:56;;;;;;;23.85;15.95;;;15.70;99.90;;;;;;5106550;28;20362;-42
2021/06/06 06:23:22;;;;;;;21.00;15.75;;;15.70;99.90;;;;;;5106740;28;20126;-41
2021/06/06 06:25:49;;;;;;;20.67;15.30;;;15.70;99.90;;;;;;5107202;28;20099;-42
2021/06/06 06:28:15;;;;;;;22.55;15.57;;;15.80;99.90;;;;;;5106379;28;20072;-40
2021/06/06 06:30:41;;;;;;;21.38;16.42;;;15.90;99.90;;;;;;5106670;28;20362;-41
2021/06/06 06:33:07;;;;;;;21.23;16.25;;;15.90;99.90;;;;;;5106539;28;20039;-40
2021/06/06 06:35:34;;;;;;;16.98;13.35;;;15.90;99.90;;;;;;5107015;28;20024;-41
2021/06/06 06:38:00;;;;;;;23.63;17.60;;;15.90;99.90;;;;;;5106120;28;20035;-40
2021/06/06 06:40:30;;;;;;;25.85;18.23;;;15.90;99.90;;;;;;5103284;28;20388;-41
2021/06/06 06:42:56;;;;;;;26.13;17.05;;;15.90;99.90;;;;;;5104924;28;20506;-42
2021/06/06 06:45:28;;;;;;;27.23;18.77;;;15.90;99.90;;;;;;5106336;28;20130;-42
2021/06/06 06:48:09;;;;;;;27.98;18.73;;;15.90;99.90;;;;;;5107344;28;20027;-41
2021/06/06 06:50:36;;;;;;;30.10;22.17;;;15.90;99.90;;;;;;5106656;28;20096;-41
2021/06/06 06:53:02;;;;;;;27.60;20.63;;;15.90;99.90;;;;;;5106373;28;20030;-42
2021/06/06 06:55:28;;;;;;;28.80;19.45;;;15.90;99.90;;;;;;5107123;28;20107;-43
2021/06/06 06:57:56;;;;;;;28.83;18.55;;;16.00;99.90;;;;;;5107788;28;20255;-41
2021/06/06 07:00:25;;;;;;;28.88;20.42;;;16.10;99.90;;;;;;5110286;28;20077;-41
2021/06/06 07:02:51;;;;;;;39.30;25.42;;;16.20;99.90;;;;;;5110201;28;20046;-42
2021/06/06 07:05:16;;;;;;;34.58;23.48;;;16.20;99.90;;;;;;5109612;28;20024;-41
2021/06/06 07:07:45;;;;;;;33.85;23.33;;;16.20;99.90;;;;;;5110328;28;20020;-40
2021/06/06 07:10:15;;;;;;;31.48;21.98;;;16.30;99.90;;;;;;5110109;28;20019;-38
2021/06/06 07:12:40;;;;;;;27.40;20.05;;;16.30;99.90;;;;;;5109889;28;20141;-40
2021/06/06 07:15:12;;;;;;;36.28;23.48;;;16.30;99.90;;;;;;5109086;28;20114;-40
2021/06/06 07:17:38;;;;;;;32.28;20.52;;;16.30;99.90;;;;;;5110499;28;20032;-41
2021/06/06 07:20:07;;;;;;;28.38;21.42;;;16.30;99.90;;;;;;5109499;28;20413;-41
2021/06/06 07:22:33;;;;;;;30.02;19.92;;;16.40;99.90;;;;;;5110429;28;20043;-39
2021/06/06 07:24:59;;;;;;;24.08;18.48;;;16.40;99.90;;;;;;5109615;28;20102;-41
2021/06/06 07:27:25;;;;;;;21.75;16.33;;;16.50;99.90;;;;;;5109572;28;20490;-41
2021/06/06 07:29:53;;;;;;;22.38;17.95;;;16.50;99.90;;;;;;5109473;28;20057;-41
2021/06/06 07:32:20;;;;;;;24.15;18.27;;;16.60;99.90;;;;;;5109855;28;20024;-41
2021/06/06 07:34:47;;;;;;;21.60;17.70;;;16.60;99.90;;;;;;5109976;28;20024;-43
2021/06/06 07:37:13;;;;;;;24.33;17.55;;;16.60;99.90;;;;;;5108995;28;20039;-41
2021/06/06 07:39:40;;;;;;;20.17;16.40;;;16.70;99.90;;;;;;5109737;28;20028;-41
2021/06/06 07:42:07;;;;;;;18.92;14.30;;;16.70;99.90;;;;;;5109169;28;20023;-40
2021/06/06 07:44:32;;;;;;;17.60;13.70;;;16.80;99.90;;;;;;5109803;28;20074;-40
2021/06/06 07:46:58;;;;;;;13.93;12.20;;;16.90;99.90;;;;;;5109360;28;20055;-39
2021/06/06 07:49:23;;;;;;;13.75;11.55;;;17.00;99.90;;;;;;5109315;28;20032;-42
2021/06/06 07:51:50;;;;;;;15.00;12.48;;;17.00;99.90;;;;;;5108869;28;20027;-42
2021/06/06 07:54:16;;;;;;;18.27;14.38;;;17.10;99.90;;;;;;5109862;28;20028;-43
2021/06/06 07:56:44;;;;;;;15.95;13.25;;;17.20;99.90;;;;;;5108969;28;20031;-42
2021/06/06 07:59:10;;;;;;;20.10;15.95;;;17.10;99.90;;;;;;5109635;28;20032;-42
2021/06/06 08:01:35;;;;;;;16.40;13.70;;;17.10;99.90;;;;;;5109083;28;20123;-41
2021/06/06 08:04:01;;;;;;;16.90;14.05;;;17.10;99.90;;;;;;5108994;28;20487;-40
2021/06/06 08:06:29;;;;;;;16.48;14.20;;;17.00;99.90;;;;;;5109722;28;20409;-40
2021/06/06 08:08:55;;;;;;;16.33;13.68;;;17.00;99.90;;;;;;5108355;28;20089;-42
2021/06/06 08:11:31;;;;;;;16.90;14.30;;;17.00;99.90;;;;;;5109661;28;20463;-43
2021/06/06 08:13:57;;;;;;;13.38;11.90;;;17.00;99.90;;;;;;5108730;28;20126;-41
2021/06/06 08:16:25;;;;;;;12.02;10.82;;;17.00;99.90;;;;;;5108420;28;20620;-39
2021/06/06 08:18:51;;;;;;;13.38;11.95;;;17.10;99.90;;;;;;5109166;28;20023;-40
2021/06/06 08:21:33;;;;;;;11.98;10.60;;;17.10;99.90;;;;;;5109580;28;20072;-41
2021/06/06 08:23:59;;;;;;;12.85;10.73;;;17.20;99.90;;;;;;5105314;28;20057;-43
2021/06/06 08:26:26;;;;;;;10.93;9.35;;;17.30;99.90;;;;;;5109157;28;20019;-39
2021/06/06 08:28:53;;;;;;;12.70;10.88;;;17.40;99.90;;;;;;5108662;28;20134;-42
2021/06/06 08:31:27;;;;;;;12.45;10.73;;;17.50;99.90;;;;;;5108844;28;20016;-41
2021/06/06 08:33:53;;;;;;;12.10;10.50;;;17.40;99.90;;;;;;5108656;28;20020;-42
2021/06/06 08:36:27;;;;;;;9.95;8.60;;;17.50;99.90;;;;;;5109143;28;20477;-41
2021/06/06 08:38:54;;;;;;;12.07;10.30;;;17.60;99.90;;;;;;5105098;28;20049;-42
2021/06/06 08:41:31;;;;;;;9.77;8.23;;;17.70;99.90;;;;;;5109639;28;20023;-41
2021/06/06 08:44:03;;;;;;;11.90;9.25;;;17.80;99.90;;;;;;5108059;28;20042;-43
2021/06/06 08:46:35;;;;;;;14.23;10.57;;;17.80;99.90;;;;;;5122058;27;20379;-41
2021/06/06 08:49:02;;;;;;;11.65;9.93;;;17.70;99.70;;;;;;5104137;28;20043;-42
2021/06/06 08:51:37;;;;;;;11.27;9.32;;;17.60;99.90;;;;;;5108666;27;20399;-38
2021/06/06 08:54:45;;;;;;;9.73;8.73;;;17.50;99.90;;;;;;5107918;28;20031;-40
2021/06/06 08:57:33;;;;;;;10.25;8.75;;;17.60;99.90;;;;;;5083289;28;20032;-42
2021/06/06 09:00:00;;;;;;;9.45;8.23;;;17.60;99.90;;;;;;5106252;28;20047;-41
2021/06/06 09:02:34;;;;;;;9.57;7.30;;;17.70;99.90;;;;;;5108150;28;20108;-41
2021/06/06 09:05:02;;;;;;;11.60;10.07;;;17.80;99.90;;;;;;5107126;28;20019;-40
2021/06/06 09:07:42;;;;;;;9.38;8.35;;;18.00;98.90;;;;;;5108368;28;20092;-41
2021/06/06 09:10:14;;;;;;;10.02;8.13;;;17.90;99.20;;;;;;5106571;28;20040;-41
2021/06/06 09:12:40;;;;;;;12.57;7.40;;;18.00;99.30;;;;;;5107752;28;20020;-43
2021/06/06 09:15:08;;;;;;;10.77;7.80;;;18.10;99.50;;;;;;5107757;28;20065;-41
2021/06/06 09:17:36;;;;;;;9.82;7.60;;;18.30;98.80;;;;;;5108065;28;20369;-41
2021/06/06 09:20:05;;;;;;;9.60;8.70;;;18.40;98.80;;;;;;5106778;28;20532;-44
2021/06/06 09:22:37;;;;;;;10.75;8.07;;;18.50;98.40;;;;;;5107793;28;20031;-41
2021/06/06 09:25:13;;;;;;;9.40;7.80;;;18.60;98.20;;;;;;5107475;28;20024;-41
2021/06/06 09:27:40;;;;;;;8.63;7.60;;;18.70;98.00;;;;;;5107921;28;20343;-40
2021/06/06 09:30:15;;;;;;;8.50;6.85;;;18.70;98.10;;;;;;5107026;28;20015;-41
2021/06/06 09:32:43;;;;;;;10.20;6.80;;;18.90;97.90;;;;;;5107832;28;20024;-41
2021/06/06 09:35:28;;;;;;;6.32;5.68;;;19.00;97.40;;;;;;5106921;28;20020;-40
2021/06/06 09:38:14;;;;;;;8.65;5.93;;;19.20;97.60;;;;;;5107695;28;20390;-43
2021/06/06 09:40:44;;;;;;;6.68;4.50;;;19.20;97.50;;;;;;5107028;28;20028;-40
2021/06/06 09:43:22;;;;;;;7.53;6.68;;;19.40;97.70;;;;;;5107221;27;20047;-41
2021/06/06 09:45:48;;;;;;;7.55;6.45;;;19.60;96.40;;;;;;5107235;28;20020;-42
2021/06/06 09:48:27;;;;;;;5.90;5.13;;;19.60;96.50;;;;;;5107552;28;20479;-41
2021/06/06 09:50:54;;;;;;;8.05;7.25;;;19.60;96.80;;;;;;5107122;28;20467;-40
2021/06/06 09:53:30;;;;;;;8.82;6.43;;;19.70;96.20;;;;;;5107680;28;20031;-41
2021/06/06 09:56:21;;;;;;;6.25;5.40;;;19.70;96.30;;;;;;5107379;28;20035;-44
2021/06/06 09:58:47;;;;;;;7.15;6.45;;;19.70;96.60;;;;;;5107843;28;20027;-40
2021/06/06 10:01:25;;;;;;;6.50;5.40;;;19.70;96.00;;;;;;5106561;28;20023;-40
2021/06/06 10:03:56;;;;;;;9.27;6.50;;;19.70;96.50;;;;;;5107238;28;20089;-41
2021/06/06 10:06:31;;;;;;;6.43;5.78;;;19.70;96.40;;;;;;5107035;28;20096;-40
2021/06/06 10:09:18;;;;;;;5.68;5.07;;;19.70;96.60;;;;;;5107103;28;20066;-40
2021/06/06 10:12:39;;;;;;;6.10;5.50;;;19.70;96.70;;;;;;5107180;28;20027;-41
2021/06/06 10:15:18;;;;;;;5.90;5.15;;;19.80;96.70;;;;;;5073023;28;20047;-41
2021/06/06 10:17:52;;;;;;;5.50;4.90;;;20.00;96.70;;;;;;5103494;28;20028;-41
2021/06/06 10:20:38;;;;;;;6.00;5.07;;;20.20;96.50;;;;;;5107412;28;20049;-41
2021/06/06 10:23:21;;;;;;;6.05;5.45;;;20.40;95.80;;;;;;5105997;28;20035;-40
2021/06/06 10:25:49;;;;;;;;;;;20.50;95.50;;;;;;5107203;28;20024;-40
2021/06/06 10:28:24;;;;;;;5.78;5.28;;;20.60;95.70;;;;;;5107367;28;19907;-40
2021/06/06 10:31:05;;;;;;;7.63;6.78;;;20.60;95.30;;;;;;5105899;28;20392;-42
2021/06/06 10:33:39;;;;;;;7.05;5.93;;;20.70;93.90;;;;;;5108859;28;20111;-40
2021/06/06 10:36:06;;;;;;;5.50;4.80;;;20.50;94.40;;;;;;5110624;28;20028;-40
2021/06/06 10:38:37;;;;;;;6.18;5.57;;;20.50;94.70;;;;;;5110879;28;20566;-41
2021/06/06 10:41:31;;;;;;;4.78;4.28;;;20.50;94.60;;;;;;5110084;27;20036;-41
2021/06/06 10:44:09;;;;;;;5.57;4.60;;;20.50;94.80;;;;;;5108070;28;20040;-41
2021/06/06 10:46:48;;;;;;;5.15;4.60;;;20.50;94.90;;;;;;5111098;28;20020;-41
2021/06/06 10:49:20;;;;;;;6.13;5.53;;;20.60;94.90;;;;;;5100199;28;20377;-40
2021/06/06 10:51:54;;;;;;;5.88;4.93;;;20.50;94.60;;;;;;5109907;28;20103;-39
2021/06/06 10:54:40;;;;;;;5.28;4.78;;;20.40;95.00;;;;;;5110304;28;20020;-40
2021/06/06 10:57:31;;;;;;;5.13;4.38;;;20.50;95.10;;;;;;5110175;28;20032;-41
2021/06/06 11:00:00;;;;;;;6.88;5.43;;;20.50;95.10;;;;;;5097281;28;20073;-41
2021/06/06 11:02:39;;;;;;;5.20;4.35;;;20.40;94.80;;;;;;5110243;28;20118;-41
2021/06/06 11:05:30;;;;;;;5.95;5.35;;;20.50;95.20;;;;;;5109867;28;20047;-41
2021/06/06 11:07:56;;;;;;;5.22;4.50;;;20.60;95.10;;;;;;5109375;28;20043;-41
2021/06/06 11:10:24;;;;;;;4.45;4.05;;;20.70;94.80;;;;;;5110487;28;20026;-40
2021/06/06 11:12:53;;;;;;;5.40;4.80;;;20.90;94.80;;;;;;5109670;28;20106;-42
2021/06/06 11:15:30;;;;;;;6.85;4.70;;;21.00;94.30;;;;;;5110646;28;20127;-42
2021/06/06 11:18:08;;;;;;;5.32;4.55;;;21.00;94.20;;;;;;5109717;28;20039;-40
2021/06/06 11:20:36;;;;;;;5.78;4.90;;;21.10;94.20;;;;;;5110069;28;20024;-41
2021/06/06 11:23:13;;;;;;;4.47;4.07;;;21.10;94.10;;;;;;5109920;27;20035;-42
2021/06/06 11:25:49;;;;;;;5.75;4.40;;;21.20;93.70;;;;;;5109951;28;20085;-41
2021/06/06 11:28:32;;;;;;;4.47;4.07;;;21.20;93.90;;;;;;5110182;28;20525;-40
2021/06/06 11:30:58;;;;;;;4.70;3.83;;;21.20;94.00;;;;;;5110012;28;20106;-41
2021/06/06 11:33:35;;;;;;;4.90;4.40;;;21.30;93.90;;;;;;5109315;28;20038;-41
2021/06/06 11:36:05;;;;;;;8.02;5.70;;;21.40;93.50;;;;;;5109125;27;20024;-40
2021/06/06 11:38:43;;;;;;;6.45;5.10;;;21.40;92.70;;;;;;5109990;28;20336;-43
2021/06/06 11:41:13;;;;;;;7.65;5.30;;;21.30;92.70;;;;;;5109912;28;20045;-41
2021/06/06 11:43:54;;;;;;;6.20;5.57;;;21.30;93.10;;;;;;5108561;28;20508;-41
2021/06/06 11:46:31;;;;;;;5.70;4.53;;;21.30;93.00;;;;;;5100570;28;20024;-42
2021/06/06 11:49:35;;;;;;;4.80;4.05;;;21.30;93.20;;;;;;5109365;28;20410;-42
2021/06/06 11:52:34;;;;;;;4.28;3.50;;;21.40;93.40;;;;;;5109444;28;20032;-42
2021/06/06 11:55:23;;;;;;;7.60;4.82;;;21.70;93.40;;;;;;5108734;27;20031;-42
2021/06/06 11:57:53;;;;;;;4.65;4.25;;;21.80;92.60;;;;;;5078721;28;20063;-41
2021/06/06 12:00:37;;;;;;;4.40;3.50;;;21.80;92.40;;;;;;5104528;28;20022;-42
2021/06/06 12:03:10;;;;;;;4.10;3.70;;;21.70;92.80;;;;;;5089002;28;20032;-41
2021/06/06 12:05:37;;;;;;;5.65;3.95;;;21.80;91.80;;;;;;5105554;28;20036;-41
2021/06/06 12:08:13;;;;;;;5.05;3.85;;;21.70;92.20;;;;;;5108713;28;20050;-40
2021/06/06 12:10:52;;;;;;;3.63;3.33;;;21.70;92.20;;;;;;5109679;28;20016;-43
2021/06/06 12:13:27;;;;;;;3.88;3.55;;;21.70;92.40;;;;;;5089051;28;20027;-41
2021/06/06 12:16:04;;;;;;;5.25;4.00;;;21.70;92.50;;;;;;5103807;28;20139;-39
2021/06/06 12:18:31;;;;;;;4.05;3.40;;;21.70;91.80;;;;;;5089580;28;20054;-39
2021/06/06 12:21:03;;;;;;;3.65;3.10;;;21.60;92.20;;;;;;5102972;28;20020;-42
2021/06/06 12:23:32;;;;;;;3.58;2.90;;;21.80;92.30;;;;;;5109140;28;20084;-41
2021/06/06 12:26:12;;;;;;;6.28;3.40;;;22.00;91.90;;;;;;5106919;28;20020;-43
2021/06/06 12:28:47;;;;;;;5.28;3.20;;;22.10;91.00;;;;;;5109767;28;20091;-39
2021/06/06 12:31:35;;;;;;;2.90;2.60;;;22.10;91.00;;;;;;5108815;28;20463;-40
2021/06/06 12:34:25;;;;;;;3.33;2.88;;;22.10;90.30;;;;;;5098956;28;20031;-41
2021/06/06 12:37:06;;;;;;;3.55;2.60;;;22.10;90.90;;;;;;5108249;28;20164;-40
2021/06/06 12:39:37;;;;;;;3.03;2.53;;;22.20;91.10;;;;;;5109711;28;20062;-40
2021/06/06 12:42:06;;;;;;;2.97;2.72;;;22.20;91.00;;;;;;5108110;28;20031;-40
2021/06/06 12:44:36;;;;;;;2.70;2.50;;;22.30;91.20;;;;;;5107911;28;20043;-42
2021/06/06 12:47:06;;;;;;;3.33;2.40;;;22.50;90.70;;;;;;5108285;28;20015;-41
2021/06/06 12:49:48;;;;;;;4.50;2.38;;;22.60;90.60;;;;;;5088538;28;20032;-41
2021/06/06 12:52:31;;;;;;;;;;;22.70;90.70;;;;;;5105532;28;20077;-42
2021/06/06 12:54:59;;;;;;;;;;;22.60;90.00;;;;;;5087961;28;19908;-40